createdAt,value
2018-03-20T00:02:02.915Z,99523
2018-03-20T00:04:29.010Z,99533
2018-03-20T00:06:55.091Z,99523
2018-03-20T00:09:21.171Z,99526
2018-03-20T00:11:47.252Z,99527
2018-03-20T00:14:13.422Z,99529
2018-03-20T00:16:40.238Z,99518
2018-03-20T00:19:06.339Z,99526
2018-03-20T00:21:32.418Z,99513
2018-03-20T00:23:58.498Z,99519
2018-03-20T00:26:25.331Z,99519
2018-03-20T00:28:51.431Z,99519
2018-03-20T00:31:17.518Z,99513
2018-03-20T00:33:43.597Z,99516
2018-03-20T00:36:09.675Z,99515
2018-03-20T00:38:35.764Z,99527
2018-03-20T00:41:01.842Z,99517
2018-03-20T00:43:27.925Z,99521
2018-03-20T00:45:54.033Z,99510
2018-03-20T00:48:20.123Z,99521
2018-03-20T00:50:46.208Z,99508
2018-03-20T00:53:12.290Z,99507
2018-03-20T00:55:40.411Z,99510
2018-03-20T00:58:06.482Z,99514
2018-03-20T01:00:33.283Z,99503
2018-03-20T01:02:59.355Z,99498
2018-03-20T01:05:25.414Z,99502
2018-03-20T01:07:52.226Z,99500
2018-03-20T01:10:18.301Z,99503
2018-03-20T01:12:45.131Z,99506
2018-03-20T01:15:11.195Z,99508
2018-03-20T01:17:38.003Z,99496
2018-03-20T01:20:04.078Z,99493
2018-03-20T01:22:30.159Z,99494
2018-03-20T01:24:56.228Z,99492
2018-03-20T01:27:22.291Z,99501
2018-03-20T01:29:48.350Z,99499
2018-03-20T01:32:14.414Z,99503
2018-03-20T01:34:40.482Z,99500
2018-03-20T01:37:06.547Z,99501
2018-03-20T01:39:33.386Z,99496
2018-03-20T01:41:59.460Z,99497
2018-03-20T01:44:25.531Z,99486
2018-03-20T01:46:51.591Z,99487
2018-03-20T01:49:17.679Z,99483
2018-03-20T01:51:43.744Z,99488
2018-03-20T01:54:09.807Z,99484
2018-03-20T01:56:35.887Z,99488
2018-03-20T01:59:01.950Z,99491
2018-03-20T02:01:28.026Z,99487
2018-03-20T02:03:54.827Z,99490
2018-03-20T02:06:20.907Z,99484
2018-03-20T02:08:46.976Z,99476
2018-03-20T02:11:13.035Z,99474
2018-03-20T02:13:39.095Z,99477
2018-03-20T02:16:05.173Z,99476
2018-03-20T02:18:31.970Z,99479
2018-03-20T02:20:58.033Z,99472
2018-03-20T02:23:24.099Z,99472
2018-03-20T02:25:50.898Z,99470
2018-03-20T02:28:16.975Z,99483
2018-03-20T02:30:43.045Z,99474
2018-03-20T02:33:09.121Z,99483
2018-03-20T02:35:35.186Z,99484
2018-03-20T02:38:01.272Z,99477
2018-03-20T02:40:27.343Z,99482
2018-03-20T02:42:53.415Z,99482
2018-03-20T02:45:20.218Z,99481
2018-03-20T02:47:46.288Z,99477
2018-03-20T02:50:12.350Z,99484
2018-03-20T02:52:39.182Z,99488
2018-03-20T02:55:05.258Z,99473
2018-03-20T02:57:31.319Z,99484
2018-03-20T02:59:57.413Z,99486
2018-03-20T03:02:23.482Z,99486
2018-03-20T03:04:49.550Z,99480
2018-03-20T03:07:15.618Z,99480
2018-03-20T03:09:42.435Z,99487
2018-03-20T03:12:08.491Z,99493
2018-03-20T03:14:34.563Z,99493
2018-03-20T03:17:00.621Z,99493
2018-03-20T03:19:26.699Z,99488
2018-03-20T03:21:52.763Z,99498
2018-03-20T03:24:19.574Z,99496
2018-03-20T03:26:45.634Z,99505
2018-03-20T03:29:11.708Z,99507
2018-03-20T03:31:37.782Z,99489
2018-03-20T03:34:03.847Z,99504
2018-03-20T03:36:29.907Z,99510
2018-03-20T03:38:55.983Z,99500
2018-03-20T03:41:22.059Z,99501
2018-03-20T03:43:48.135Z,99492
2018-03-20T03:46:14.198Z,99500
2018-03-20T03:48:40.263Z,99494
2018-03-20T03:51:06.327Z,99502
2018-03-20T03:53:33.126Z,99493
2018-03-20T03:55:59.223Z,99499
2018-03-20T03:58:25.292Z,99512
2018-03-20T04:00:51.395Z,99509
2018-03-20T04:03:17.472Z,99509
2018-03-20T04:05:43.551Z,99503
2018-03-20T04:08:10.375Z,99506
2018-03-20T04:10:36.460Z,99498
2018-03-20T04:13:02.549Z,99498
2018-03-20T04:15:28.635Z,99504
2018-03-20T04:17:55.475Z,99501
2018-03-20T04:20:22.316Z,99508
2018-03-20T04:22:48.402Z,99509
2018-03-20T04:25:14.484Z,99500
2018-03-20T04:27:40.571Z,99503
2018-03-20T04:30:06.656Z,99509
2018-03-20T04:32:32.762Z,99509
2018-03-20T04:34:58.842Z,99503
2018-03-20T04:37:24.923Z,99502
2018-03-20T04:39:51.019Z,99499
2018-03-20T04:42:17.107Z,99501
2018-03-20T04:44:43.190Z,99494
2018-03-20T04:47:09.268Z,99496
2018-03-20T04:49:35.380Z,99492
2018-03-20T04:52:02.199Z,99501
2018-03-20T04:54:28.288Z,99504
2018-03-20T04:56:54.363Z,99489
2018-03-20T04:59:20.447Z,99499
2018-03-20T05:01:47.275Z,99496
2018-03-20T05:04:13.335Z,99505
2018-03-20T05:06:39.394Z,99495
2018-03-20T05:09:05.458Z,99499
2018-03-20T05:11:31.522Z,99494
2018-03-20T05:13:57.583Z,99497
2018-03-20T05:16:24.402Z,99497
2018-03-20T05:19:01.225Z,99497
2018-03-20T05:24:29.047Z,99497
2018-03-20T05:26:55.863Z,99497
2018-03-20T05:29:21.939Z,99504
2018-03-20T05:31:48.766Z,99497
2018-03-20T05:34:14.839Z,99493
2018-03-20T05:36:41.673Z,99508
2018-03-20T05:39:07.748Z,99497
2018-03-20T05:41:34.088Z,99494
2018-03-20T05:44:00.171Z,99496
2018-03-20T05:52:56.319Z,99497
2018-03-20T05:55:23.154Z,99494
2018-03-20T05:57:49.248Z,99498
2018-03-20T06:00:15.331Z,99507
2018-03-20T06:02:41.428Z,99502
2018-03-20T06:05:07.506Z,99516
2018-03-20T06:07:33.587Z,99519
2018-03-20T06:09:59.677Z,99515
2018-03-20T06:12:25.762Z,99516
2018-03-20T06:14:51.844Z,99526
2018-03-20T06:17:17.934Z,99531
2018-03-20T06:19:44.031Z,99535
2018-03-20T06:22:10.128Z,99534
2018-03-20T06:24:36.251Z,99533
2018-03-20T06:27:02.345Z,99535
2018-03-20T06:29:28.431Z,99541
2018-03-20T06:31:54.538Z,99550
2018-03-20T06:34:21.366Z,99550
2018-03-20T06:36:47.523Z,99549
2018-03-20T06:39:14.476Z,99553
2018-03-20T06:41:41.392Z,99551
2018-03-20T06:44:07.572Z,99567
2018-03-20T06:46:34.553Z,99567
2018-03-20T06:49:00.799Z,99566
2018-03-20T06:51:29.101Z,99573
2018-03-20T06:53:55.295Z,99568
2018-03-20T06:56:22.260Z,99572
2018-03-20T06:58:49.196Z,99576
2018-03-20T07:01:29.831Z,99581
2018-03-20T07:03:56.014Z,99580
2018-03-20T07:06:22.201Z,99583
2018-03-20T07:08:48.413Z,99586
2018-03-20T07:11:15.360Z,99579
2018-03-20T07:13:41.576Z,99582
2018-03-20T07:16:08.044Z,99583
2018-03-20T07:18:34.219Z,99575
2018-03-20T07:21:00.451Z,99585
2018-03-20T07:23:27.456Z,99586
2018-03-20T07:25:53.693Z,99585
2018-03-20T07:28:19.961Z,99590
2018-03-20T07:30:46.128Z,99597
2018-03-20T07:33:12.336Z,99589
2018-03-20T07:35:38.548Z,99598
2018-03-20T07:38:04.779Z,99590
2018-03-20T07:40:31.000Z,99591
2018-03-20T07:42:57.219Z,99593
2018-03-20T07:45:24.131Z,99605
2018-03-20T07:47:50.373Z,99601
2018-03-20T07:50:16.601Z,99617
2018-03-20T07:52:42.804Z,99616
2018-03-20T07:55:09.730Z,99603
2018-03-20T07:57:35.959Z,99600
2018-03-20T08:00:02.872Z,99608
2018-03-20T08:02:29.092Z,99600
2018-03-20T08:04:56.040Z,99606
2018-03-20T08:07:22.188Z,99600
2018-03-20T08:09:49.116Z,99597
2018-03-20T08:12:15.312Z,99603
2018-03-20T08:14:41.544Z,99601
2018-03-20T08:17:07.754Z,99601
2018-03-20T08:22:37.969Z,99596
2018-03-20T08:25:04.158Z,99602
2018-03-20T08:27:30.365Z,99597
2018-03-20T08:29:56.517Z,99595
2018-03-20T08:32:22.635Z,99605
2018-03-20T08:34:48.804Z,99610
2018-03-20T08:37:14.960Z,99603
2018-03-20T08:39:41.140Z,99610
2018-03-20T08:45:28.981Z,99605
2018-03-20T08:47:56.628Z,99614
2018-03-20T08:50:22.778Z,99626
2018-03-20T08:52:48.923Z,99612
2018-03-20T08:55:15.119Z,99622
2018-03-20T08:57:41.294Z,99616
2018-03-20T09:00:07.491Z,99624
2018-03-20T09:02:33.642Z,99626
2018-03-20T09:04:59.837Z,99625
2018-03-20T09:07:26.008Z,99628
2018-03-20T09:09:52.195Z,99613
2018-03-20T09:12:18.402Z,99636
2018-03-20T09:14:44.576Z,99627
2018-03-20T09:17:10.733Z,99631
2018-03-20T09:19:36.918Z,99641
2018-03-20T09:22:03.107Z,99635
2018-03-20T09:24:30.089Z,99633
2018-03-20T09:26:56.249Z,99628
2018-03-20T09:29:22.397Z,99634
2018-03-20T09:31:48.568Z,99642
2018-03-20T09:34:14.749Z,99643
2018-03-20T09:36:41.655Z,99651
2018-03-20T09:39:07.811Z,99650
2018-03-20T09:41:33.990Z,99640
2018-03-20T09:44:00.170Z,99643
2018-03-20T09:46:26.346Z,99646
2018-03-20T09:48:52.557Z,99650
2018-03-20T09:51:18.714Z,99662
2018-03-20T09:53:44.896Z,99662
2018-03-20T09:56:11.085Z,99670
2018-03-20T09:58:37.234Z,99673
2018-03-20T10:01:03.398Z,99670
2018-03-20T10:03:29.539Z,99672
2018-03-20T10:05:55.703Z,99680
2018-03-20T10:08:21.852Z,99683
2018-03-20T10:10:48.027Z,99686
2018-03-20T10:13:14.178Z,99689
2018-03-20T10:15:40.379Z,99687
2018-03-20T10:18:06.591Z,99689
2018-03-20T10:20:32.732Z,99691
2018-03-20T10:22:58.903Z,99699
2018-03-20T10:25:25.089Z,99710
2018-03-20T10:27:51.995Z,99706
2018-03-20T10:30:18.154Z,99709
2018-03-20T10:32:44.334Z,99717
2018-03-20T10:35:10.553Z,99714
2018-03-20T10:37:37.489Z,99712
2018-03-20T10:40:03.655Z,99716
2018-03-20T10:42:30.573Z,99710
2018-03-20T10:44:56.737Z,99721
2018-03-20T10:47:22.898Z,99725
2018-03-20T10:49:49.816Z,99721
2018-03-20T10:52:15.982Z,99723
2018-03-20T10:54:42.935Z,99726
2018-03-20T10:57:09.103Z,99730
2018-03-20T10:59:35.255Z,99745
2018-03-20T11:02:07.471Z,99745
2018-03-20T11:04:33.658Z,99733
2018-03-20T11:06:59.825Z,99738
2018-03-20T11:09:25.948Z,99748
2018-03-20T11:11:52.093Z,99744
2018-03-20T11:14:18.237Z,99742
2018-03-20T11:16:44.381Z,99737
2018-03-20T11:19:10.548Z,99751
2018-03-20T11:21:36.737Z,99759
2018-03-20T11:24:02.923Z,99760
2018-03-20T11:26:29.074Z,99759
2018-03-20T11:28:55.976Z,99768
2018-03-20T11:31:22.125Z,99771
2018-03-20T11:33:48.295Z,99778
2018-03-20T11:36:14.502Z,99771
2018-03-20T11:38:40.671Z,99776
2018-03-20T11:41:06.846Z,99789
2018-03-20T11:43:33.771Z,99794
2018-03-20T11:45:59.918Z,99799
2018-03-20T11:48:26.082Z,99806
2018-03-20T11:50:52.987Z,99808
2018-03-20T11:53:19.178Z,99804
2018-03-20T11:55:46.098Z,99819
2018-03-20T11:58:12.267Z,99821
2018-03-20T12:00:38.457Z,99812
2018-03-20T12:03:04.638Z,99823
2018-03-20T12:05:30.845Z,99819
2018-03-20T12:07:57.009Z,99821
2018-03-20T12:10:23.171Z,99817
2018-03-20T12:12:50.131Z,99831
2018-03-20T12:15:17.014Z,99828
2018-03-20T12:17:43.158Z,99832
2018-03-20T12:20:09.366Z,99826
2018-03-20T12:22:36.265Z,99831
2018-03-20T12:25:02.447Z,99834
2018-03-20T12:27:28.585Z,99830
2018-03-20T12:29:54.764Z,99830
2018-03-20T12:32:20.908Z,99840
2018-03-20T12:34:47.122Z,99836
2018-03-20T12:37:14.046Z,99841
2018-03-20T12:39:40.214Z,99839
2018-03-20T12:42:07.146Z,99837
2018-03-20T12:44:33.358Z,99848
2018-03-20T12:46:59.564Z,99850
2018-03-20T12:49:25.709Z,99859
2018-03-20T12:51:51.897Z,99858
2018-03-20T12:54:18.057Z,99862
2018-03-20T12:56:44.262Z,99854
2018-03-20T12:59:10.430Z,99867
2018-03-20T13:01:36.595Z,99855
2018-03-20T13:04:03.516Z,99873
2018-03-20T13:06:29.719Z,99876
2018-03-20T13:08:55.928Z,99873
2018-03-20T13:11:22.847Z,99878
2018-03-20T13:13:49.037Z,99873
2018-03-20T13:16:15.208Z,99874
2018-03-20T13:18:41.400Z,99880
2018-03-20T13:21:08.323Z,99880
2018-03-20T13:23:38.435Z,99883
2018-03-20T13:26:07.984Z,99886
2018-03-20T13:28:48.243Z,99890
2018-03-20T13:31:25.086Z,99898
2018-03-20T13:34:01.457Z,99909
2018-03-20T13:36:31.810Z,99900
2018-03-20T13:39:04.286Z,99902
2018-03-20T13:44:48.107Z,99912
2018-03-20T13:47:14.279Z,99917
2018-03-20T13:49:44.348Z,99924
2018-03-20T13:52:10.519Z,99929
2018-03-20T13:54:36.712Z,99927
2018-03-20T13:57:03.585Z,99932
2018-03-20T13:59:29.745Z,99931
2018-03-20T14:01:55.809Z,99938
2018-03-20T14:04:21.869Z,99935
2018-03-20T14:06:47.953Z,99953
2018-03-20T14:09:13.994Z,99952
2018-03-20T14:11:44.232Z,99945
2018-03-20T14:14:34.573Z,99957
2018-03-20T14:17:01.378Z,99962
2018-03-20T14:19:27.425Z,99957
2018-03-20T14:21:57.156Z,99961
2018-03-20T14:24:29.513Z,99963
2018-03-20T14:26:56.307Z,99965
2018-03-20T14:29:22.363Z,99971
2018-03-20T14:31:48.416Z,99967
2018-03-20T14:34:14.454Z,99970
2018-03-20T14:36:40.512Z,99978
2018-03-20T14:39:06.561Z,99982
2018-03-20T14:41:32.610Z,99981
2018-03-20T14:43:58.685Z,99975
2018-03-20T14:46:24.728Z,99995
2018-03-20T14:48:50.780Z,100002
2018-03-20T14:51:16.840Z,100001
2018-03-20T14:53:42.892Z,99998
2018-03-20T14:56:08.936Z,100006
2018-03-20T14:58:35.001Z,100014
2018-03-20T15:01:01.054Z,100003
2018-03-20T15:03:27.118Z,100017
2018-03-20T15:05:53.908Z,100015
2018-03-20T15:08:19.966Z,100014
2018-03-20T15:10:46.031Z,100007
2018-03-20T15:13:12.078Z,100014
2018-03-20T15:15:38.125Z,100019
2018-03-20T15:18:04.164Z,100031
2018-03-20T15:20:30.213Z,100039
2018-03-20T15:22:56.493Z,100042
2018-03-20T15:25:22.574Z,100051
2018-03-20T15:27:49.362Z,100051
2018-03-20T15:30:15.400Z,100048
2018-03-20T15:32:41.458Z,100059
2018-03-20T15:35:07.510Z,100055
2018-03-20T15:37:33.561Z,100067
2018-03-20T15:39:59.618Z,100082
2018-03-20T15:42:25.686Z,100086
2018-03-20T15:44:51.733Z,100080
2018-03-20T15:47:17.792Z,100095
2018-03-20T15:49:43.845Z,100101
2018-03-20T15:52:09.902Z,100101
2018-03-20T15:54:35.957Z,100110
2018-03-20T15:57:02.054Z,100114
2018-03-20T15:59:28.123Z,100111
2018-03-20T16:01:54.190Z,100115
2018-03-20T16:04:20.266Z,100123
2018-03-20T16:06:47.075Z,100129
2018-03-20T16:09:13.164Z,100132
2018-03-20T16:11:39.225Z,100126
2018-03-20T16:14:05.289Z,100137
2018-03-20T16:16:32.095Z,100134
2018-03-20T16:18:58.153Z,100147
2018-03-20T16:21:24.214Z,100159
2018-03-20T16:23:50.276Z,100160
2018-03-20T16:26:16.350Z,100168
2018-03-20T16:28:43.148Z,100171
2018-03-20T16:31:09.217Z,100176
2018-03-20T16:33:35.285Z,100184
2018-03-20T16:36:01.353Z,100184
2018-03-20T16:38:27.408Z,100193
2018-03-20T16:40:54.208Z,100201
2018-03-20T16:43:20.274Z,100202
2018-03-20T16:45:46.345Z,100210
2018-03-20T16:48:12.414Z,100217
2018-03-20T16:50:38.468Z,100214
2018-03-20T16:53:04.532Z,100218
2018-03-20T16:55:31.344Z,100224
2018-03-20T16:57:57.394Z,100227
2018-03-20T17:00:23.443Z,100225
2018-03-20T17:02:49.498Z,100227
2018-03-20T17:05:15.554Z,100239
2018-03-20T17:07:41.613Z,100245
2018-03-20T17:10:07.661Z,100253
2018-03-20T17:12:33.738Z,100248
2018-03-20T17:15:00.534Z,100252
2018-03-20T17:17:26.576Z,100253
2018-03-20T17:19:52.638Z,100264
2018-03-20T17:22:18.686Z,100270
2018-03-20T17:24:55.463Z,100268
2018-03-20T17:27:22.949Z,100274
2018-03-20T17:29:49.017Z,100276
2018-03-20T17:32:15.058Z,100286
2018-03-20T17:34:41.114Z,100299
2018-03-20T17:37:07.168Z,100290
2018-03-20T17:39:33.221Z,100294
2018-03-20T17:41:59.265Z,100301
2018-03-20T17:44:25.322Z,100302
2018-03-20T17:46:51.376Z,100309
2018-03-20T17:49:17.445Z,100313
2018-03-20T17:51:43.494Z,100316
2018-03-20T17:54:09.546Z,100331
2018-03-20T17:56:35.625Z,100336
2018-03-20T17:59:02.416Z,100336
2018-03-20T18:01:28.488Z,100344
2018-03-20T18:03:54.544Z,100347
2018-03-20T18:06:20.608Z,100349
2018-03-20T18:08:46.672Z,100347
2018-03-20T18:11:13.491Z,100362
2018-03-20T18:13:39.589Z,100368
2018-03-20T18:16:13.239Z,100369
2018-03-20T18:18:39.334Z,100368
2018-03-20T18:21:18.874Z,100371
2018-03-20T18:23:44.965Z,100385
2018-03-20T18:26:11.045Z,100390
2018-03-20T18:28:37.848Z,100397
2018-03-20T18:31:03.917Z,100389
2018-03-20T18:33:29.961Z,100403
2018-03-20T18:35:56.043Z,100402
2018-03-20T18:38:22.142Z,100402
2018-03-20T18:40:48.201Z,100404
2018-03-20T18:43:14.271Z,100407
2018-03-20T18:45:54.304Z,100406
2018-03-20T18:48:20.381Z,100400
2018-03-20T18:50:46.444Z,100417
2018-03-20T18:53:12.571Z,100418
2018-03-20T18:55:38.635Z,100428
2018-03-20T18:58:04.686Z,100429
2018-03-20T19:00:30.728Z,100436
2018-03-20T19:02:56.830Z,100441
2018-03-20T19:05:23.613Z,100443
2018-03-20T19:07:49.667Z,100450
2018-03-20T19:10:15.728Z,100447
2018-03-20T19:12:41.780Z,100456
2018-03-20T19:15:07.838Z,100453
2018-03-20T19:17:33.886Z,100462
2018-03-20T19:19:59.939Z,100453
2018-03-20T19:22:25.994Z,100472
2018-03-20T19:24:52.056Z,100457
2018-03-20T19:27:18.109Z,100476
2018-03-20T19:29:44.174Z,100482
2018-03-20T19:32:17.483Z,100474
2018-03-20T19:34:44.285Z,100477
2018-03-20T19:37:10.338Z,100481
2018-03-20T19:39:36.420Z,100491
2018-03-20T19:42:02.462Z,100491
2018-03-20T19:44:28.515Z,100497
2018-03-20T19:46:54.582Z,100500
2018-03-20T19:49:20.646Z,100506
2018-03-20T19:54:55.076Z,100515
2018-03-20T19:57:21.145Z,100516
2018-03-20T19:59:47.201Z,100520
2018-03-20T20:02:13.333Z,100520
2018-03-20T20:04:39.353Z,100532
2018-03-20T20:07:05.440Z,100525
2018-03-20T20:09:32.254Z,100537
2018-03-20T20:11:58.354Z,100538
2018-03-20T20:14:24.449Z,100533
2018-03-20T20:16:50.497Z,100544
2018-03-20T20:19:17.301Z,100542
2018-03-20T20:21:43.365Z,100542
2018-03-20T20:24:20.189Z,100554
2018-03-20T20:26:47.002Z,100557
2018-03-20T20:29:13.073Z,100563
2018-03-20T20:31:39.874Z,100564
2018-03-20T20:34:05.935Z,100566
2018-03-20T20:36:31.999Z,100561
2018-03-20T20:38:58.817Z,100568
2018-03-20T20:41:24.864Z,100577
2018-03-20T20:43:50.916Z,100572
2018-03-20T20:46:19.804Z,100573
2018-03-20T20:52:15.940Z,100589
2018-03-20T20:54:50.570Z,100580
2018-03-20T20:57:37.372Z,100589
2018-03-20T21:00:34.161Z,100578
2018-03-20T21:03:00.234Z,100598
2018-03-20T21:11:31.059Z,100604
2018-03-20T21:14:21.681Z,100609
2018-03-20T21:20:01.210Z,100613
2018-03-20T21:22:27.274Z,100623
2018-03-20T21:24:58.940Z,100614
2018-03-20T21:27:24.997Z,100626
2018-03-20T21:29:53.065Z,100617
2018-03-20T21:32:50.526Z,100626
2018-03-20T21:35:29.793Z,100626
2018-03-20T21:38:03.478Z,100631
2018-03-20T21:40:50.080Z,100622
2018-03-20T21:43:17.917Z,100624
2018-03-20T21:45:43.960Z,100630
2018-03-20T21:48:13.669Z,100639
2018-03-20T21:50:39.806Z,100639
2018-03-20T21:56:05.920Z,100640
2018-03-20T21:58:42.550Z,100640
2018-03-20T22:01:12.905Z,100646
2018-03-20T22:03:38.953Z,100653
2018-03-20T22:06:05.008Z,100644
2018-03-20T22:08:31.062Z,100649
2018-03-20T22:10:57.123Z,100656
2018-03-20T22:13:23.185Z,100663
2018-03-20T22:15:49.244Z,100663
2018-03-20T22:18:16.772Z,100671
2018-03-20T22:20:42.833Z,100672
2018-03-20T22:23:22.169Z,100680
2018-03-20T22:25:48.231Z,100688
2018-03-20T22:28:14.294Z,100684
2018-03-20T22:30:41.099Z,100685
2018-03-20T22:33:07.162Z,100693
2018-03-20T22:35:33.246Z,100702
2018-03-20T22:37:59.305Z,100698
2018-03-20T22:40:25.397Z,100705
2018-03-20T22:42:51.427Z,100713
2018-03-20T22:45:17.490Z,100712
2018-03-20T22:47:54.009Z,100717
2018-03-20T22:50:20.064Z,100709
2018-03-20T22:52:46.138Z,100720
2018-03-20T22:55:12.950Z,100724
2018-03-20T22:57:39.040Z,100717
2018-03-20T23:00:07.080Z,100724
2018-03-20T23:02:33.141Z,100718
2018-03-20T23:04:59.944Z,100730
2018-03-20T23:07:26.014Z,100733
2018-03-20T23:09:52.090Z,100734
2018-03-20T23:12:18.160Z,100735
2018-03-20T23:14:44.225Z,100737
2018-03-20T23:17:10.285Z,100737
2018-03-20T23:19:37.119Z,100741
2018-03-20T23:22:04.660Z,100748
2018-03-20T23:24:30.758Z,100744
2018-03-20T23:26:57.024Z,100748
2018-03-20T23:29:23.087Z,100748
2018-03-20T23:31:49.145Z,100748
2018-03-20T23:34:15.205Z,100754
2018-03-20T23:36:42.013Z,100763
2018-03-20T23:39:08.078Z,100762
2018-03-20T23:41:34.166Z,100762
2018-03-20T23:44:00.234Z,100762
2018-03-20T23:46:26.302Z,100774
2018-03-20T23:48:53.123Z,100769
2018-03-20T23:51:19.179Z,100768
2018-03-20T23:53:45.997Z,100770
2018-03-20T23:56:12.058Z,100779
2018-03-20T23:58:38.112Z,100784
